CYYZ/YYZ METAR and TAF weather

Enter ICAO airport designator
Example: see airport list
Station Type Date Time Source
CYYZ METAR 2016/12/08 07:00 UTC NOAA

CYYZ 080700Z 22008KT 15SM FEW030 FEW190 SCT210 M01/M04 A2990 RMK SC1AC1CI2 SLP133


Station Type Date Time Source
CYYZ Decoded METAR 2016/12/08 07:00 UTC NOAA

Toronto Pearson Int'L. Ont., Canada (CYYZ) 43-40N 079-38W 173M
Dec 08, 2016 - 02:00 AM EST / 2016.12.08 0700 UTC
Wind: from the SW (220 degrees) at 9 MPH (8 KT):0
Visibility: 15 mile(s):0
Sky conditions: partly cloudy
Temperature: 30 F (-1 C)
Windchill: 21 F (-6 C):1
Dew Point: 24 F (-4 C)
Relative Humidity: 80%
Pressure (altimeter): 29.9 in. Hg (1012 hPa)
ob: CYYZ 080700Z 22008KT 15SM FEW030 FEW190 SCT210 M01/M04 A2990 RMK SC1AC1CI2 SLP133
cycle: 7

Station Type Date Time Source
CYYZ TAF 2016/12/08 06:42 UTC NOAA

TAF TAF CYYZ 080539Z 0806/0912 25010KT P6SM BKN120
FM080800 25013KT P6SM BKN025
TEMPO 0808/0816 BKN020
FM081600 27015G25KT P6SM BKN030
TEMPO 0816/0820 4SM -SHSN OVC020
FM082000 27018G30KT P6SM BKN030
TEMPO 0820/0901 6SM -SHSN BKN020
FM090100 29015G25KT P6SM -SHSN BKN030
TEMPO 0901/0904 2SM -SHSN OVC015
FM090400 30015G25KT P6SM BKN030
TEMPO 0904/0912 5SM -SHSN BKN020
RMK NXT FCST BY 080900Z